createdAt,value
2019-01-16T00:02:29.335Z,5.30
2019-01-16T00:05:21.406Z,5.30
2019-01-16T00:10:57.221Z,5.20
2019-01-16T00:13:36.458Z,5.50
2019-01-16T00:16:27.075Z,5.20
2019-01-16T00:19:14.913Z,5.20
2019-01-16T00:22:05.582Z,5.20
2019-01-16T00:24:49.266Z,5.30
2019-01-16T00:27:41.113Z,5.20
2019-01-16T00:30:28.750Z,5.30
2019-01-16T00:33:03.814Z,5.20
2019-01-16T00:35:50.479Z,5.20
2019-01-16T00:38:37.181Z,5.30
2019-01-16T00:41:23.599Z,5.20
2019-01-16T00:44:09.699Z,5.20
2019-01-16T00:46:56.063Z,5.20
2019-01-16T00:49:49.813Z,5.10
2019-01-16T00:52:31.462Z,5.10
2019-01-16T00:55:18.797Z,5.00
2019-01-16T00:58:13.217Z,5.20
2019-01-16T01:00:48.535Z,5.50
2019-01-16T01:03:43.638Z,5.00
2019-01-16T01:06:34.565Z,5.10
2019-01-16T01:09:10.440Z,4.90
2019-01-16T01:11:56.961Z,5.20
2019-01-16T01:14:50.498Z,5.10
2019-01-16T01:17:33.103Z,4.90
2019-01-16T01:20:21.426Z,4.90
2019-01-16T01:23:05.095Z,4.90
2019-01-16T01:25:50.271Z,4.50
2019-01-16T01:28:42.513Z,5.00
2019-01-16T01:31:39.329Z,5.10
2019-01-16T01:34:26.969Z,4.90
2019-01-16T01:37:13.317Z,4.90
2019-01-16T01:40:05.381Z,4.90
2019-01-16T01:42:52.641Z,4.90
2019-01-16T01:45:49.083Z,5.20
2019-01-16T01:48:40.126Z,5.00
2019-01-16T01:51:26.156Z,3.90
2019-01-16T01:54:19.922Z,5.40
2019-01-16T01:57:08.300Z,4.90
2019-01-16T02:00:04.820Z,5.00
2019-01-16T02:03:11.850Z,4.90
2019-01-16T02:05:54.314Z,5.00
2019-01-16T02:08:41.479Z,5.10
2019-01-16T02:11:31.892Z,4.90
2019-01-16T02:14:19.476Z,5.00
2019-01-16T02:17:04.675Z,4.90
2019-01-16T02:19:53.277Z,4.90
2019-01-16T02:22:40.631Z,5.00
2019-01-16T02:25:22.078Z,4.50
2019-01-16T02:28:02.990Z,4.90
2019-01-16T02:30:41.811Z,4.80
2019-01-16T02:33:27.928Z,5.00
2019-01-16T02:36:18.015Z,4.80
2019-01-16T02:39:07.251Z,4.80
2019-01-16T02:41:58.990Z,4.40
2019-01-16T02:45:00.899Z,4.90
2019-01-16T02:50:40.164Z,4.70
2019-01-16T02:53:30.864Z,4.60
2019-01-16T02:56:21.974Z,4.70
2019-01-16T02:59:15.007Z,4.60
2019-01-16T03:02:01.722Z,4.50
2019-01-16T03:04:52.240Z,4.50
2019-01-16T03:07:42.059Z,4.40
2019-01-16T03:10:39.285Z,4.40
2019-01-16T03:13:28.087Z,4.20
2019-01-16T03:16:14.632Z,4.60
2019-01-16T03:19:04.727Z,4.30
2019-01-16T03:21:52.804Z,4.00
2019-01-16T03:24:46.580Z,4.00
2019-01-16T03:27:34.059Z,3.90
2019-01-16T03:33:24.048Z,4.00
2019-01-16T03:36:09.015Z,3.70
2019-01-16T03:38:57.602Z,3.60
2019-01-16T03:41:44.308Z,3.60
2019-01-16T03:44:44.268Z,3.50
2019-01-16T03:50:31.817Z,3.40
2019-01-16T03:55:58.649Z,3.30
2019-01-16T04:01:31.956Z,3.30
2019-01-16T04:04:37.958Z,3.20
2019-01-16T04:07:28.540Z,3.20
2019-01-16T04:10:25.713Z,3.30
2019-01-16T04:13:17.390Z,6.60
2019-01-16T04:16:20.471Z,3.30
2019-01-16T04:22:03.272Z,3.50
2019-01-16T04:24:43.945Z,3.40
2019-01-16T04:27:23.743Z,3.50
2019-01-16T04:30:09.455Z,3.40
2019-01-16T04:32:56.029Z,3.60
2019-01-16T04:35:44.546Z,3.40
2019-01-16T04:38:31.301Z,3.40
2019-01-16T04:41:18.335Z,3.40
2019-01-16T04:44:14.351Z,3.40
2019-01-16T04:47:08.497Z,3.40
2019-01-16T04:50:05.292Z,3.40
2019-01-16T04:53:11.391Z,3.50
2019-01-16T04:59:11.010Z,3.50
2019-01-16T05:02:04.685Z,3.50
2019-01-16T05:05:01.695Z,3.50
2019-01-16T05:07:58.350Z,3.00
2019-01-16T05:10:40.315Z,3.50
2019-01-16T05:13:33.758Z,3.50
2019-01-16T05:16:09.729Z,3.50
2019-01-16T05:19:05.560Z,3.40
2019-01-16T05:21:43.676Z,3.40
2019-01-16T05:27:24.409Z,3.30
2019-01-16T05:30:21.036Z,3.30
2019-01-16T05:35:47.782Z,3.30
2019-01-16T05:38:35.758Z,3.20
2019-01-16T05:41:23.401Z,3.20
2019-01-16T05:44:12.246Z,3.60
2019-01-16T05:47:08.727Z,3.40
2019-01-16T05:50:00.253Z,3.10
2019-01-16T05:52:38.987Z,3.20
2019-01-16T05:55:20.102Z,3.10
2019-01-16T05:58:06.479Z,3.10
2019-01-16T06:00:47.265Z,3.10
2019-01-16T06:03:41.415Z,3.10
2019-01-16T06:06:28.359Z,3.10
2019-01-16T06:09:18.955Z,2.90
2019-01-16T06:12:06.957Z,2.90
2019-01-16T06:14:52.051Z,2.90
2019-01-16T06:17:39.655Z,2.90
2019-01-16T06:20:28.824Z,3.00
2019-01-16T06:23:12.846Z,2.90
2019-01-16T06:26:12.512Z,2.40
2019-01-16T06:29:15.492Z,2.90
2019-01-16T06:31:55.914Z,2.90
2019-01-16T06:34:46.316Z,3.20
2019-01-16T06:37:33.882Z,2.80
2019-01-16T06:40:20.431Z,2.80
2019-01-16T06:43:07.347Z,2.60
2019-01-16T06:45:53.521Z,2.30
2019-01-16T06:48:44.465Z,2.70
2019-01-16T06:51:38.419Z,2.70
2019-01-16T06:54:28.513Z,2.60
2019-01-16T06:57:14.813Z,2.70
2019-01-16T06:59:50.784Z,2.70
2019-01-16T07:02:37.547Z,2.70
2019-01-16T07:05:21.528Z,2.60
2019-01-16T07:08:07.582Z,2.60
2019-01-16T07:10:54.609Z,2.60
2019-01-16T07:13:45.085Z,2.70
2019-01-16T07:16:31.382Z,2.60
2019-01-16T07:19:21.438Z,2.60
2019-01-16T07:22:21.860Z,3.00
2019-01-16T07:25:21.404Z,2.50
2019-01-16T07:28:11.813Z,2.50
2019-01-16T07:30:58.096Z,2.50
2019-01-16T07:33:45.785Z,2.50
2019-01-16T07:36:45.475Z,2.50
2019-01-16T07:39:39.213Z,2.50
2019-01-16T07:42:37.406Z,2.70
2019-01-16T07:45:34.582Z,2.80
2019-01-16T07:48:37.339Z,2.50
2019-01-16T07:51:34.329Z,2.50
2019-01-16T07:54:28.000Z,2.60
2019-01-16T07:57:04.776Z,2.40
2019-01-16T08:00:04.591Z,2.50
2019-01-16T08:02:51.464Z,2.40
2019-01-16T08:05:37.730Z,2.50
2019-01-16T08:08:24.209Z,2.30
2019-01-16T08:11:15.588Z,2.40
2019-01-16T08:14:04.176Z,2.30
2019-01-16T08:16:57.647Z,2.40
2019-01-16T08:19:51.283Z,2.30
2019-01-16T08:25:38.958Z,2.40
2019-01-16T08:28:29.805Z,2.50
2019-01-16T08:31:16.604Z,2.50
2019-01-16T08:34:03.526Z,2.60
2019-01-16T08:36:54.944Z,2.60
2019-01-16T08:39:46.353Z,2.50
2019-01-16T08:42:46.252Z,2.70
2019-01-16T08:45:50.081Z,2.70
2019-01-16T08:48:40.781Z,2.70
2019-01-16T08:51:27.021Z,2.90
2019-01-16T08:54:26.507Z,3.00
2019-01-16T08:57:29.201Z,2.80
2019-01-16T09:00:18.944Z,2.90
2019-01-16T09:02:57.751Z,3.80
2019-01-16T09:05:48.147Z,3.00
2019-01-16T09:08:34.293Z,2.50
2019-01-16T09:11:30.954Z,2.90
2019-01-16T09:14:12.745Z,3.00
2019-01-16T09:22:40.505Z,3.10
2019-01-16T09:25:34.250Z,3.30
2019-01-16T09:28:20.387Z,3.10
2019-01-16T09:31:07.972Z,3.50
2019-01-16T09:33:54.162Z,3.50
2019-01-16T09:36:44.489Z,3.70
2019-01-16T09:39:32.932Z,3.80
2019-01-16T09:42:20.658Z,3.80
2019-01-16T09:45:06.651Z,4.00
2019-01-16T09:48:06.550Z,4.30
2019-01-16T09:50:54.124Z,4.30
2019-01-16T09:53:40.552Z,4.50
2019-01-16T09:56:28.233Z,4.60
2019-01-16T09:59:24.572Z,4.80
2019-01-16T10:02:30.410Z,4.60
2019-01-16T10:05:16.447Z,4.80
2019-01-16T10:08:02.004Z,4.70
2019-01-16T10:10:43.080Z,2.40
2019-01-16T10:13:40.135Z,4.80
2019-01-16T10:16:36.787Z,4.90
2019-01-16T10:19:22.564Z,5.00
2019-01-16T10:22:14.510Z,5.10
2019-01-16T10:25:02.156Z,5.80
2019-01-16T10:27:49.384Z,5.20
2019-01-16T10:30:37.336Z,5.20
2019-01-16T10:33:23.776Z,5.20
2019-01-16T10:36:10.248Z,5.40
2019-01-16T10:39:04.042Z,5.50
2019-01-16T10:41:50.681Z,5.40
2019-01-16T10:44:34.243Z,5.40
2019-01-16T10:47:22.560Z,5.40
2019-01-16T10:50:09.435Z,5.50
2019-01-16T10:52:57.074Z,5.70
2019-01-16T10:55:45.312Z,5.90
2019-01-16T10:58:33.219Z,6.10
2019-01-16T11:01:12.312Z,6.20
2019-01-16T11:03:59.911Z,6.00
2019-01-16T11:06:46.277Z,6.40
2019-01-16T11:09:32.714Z,6.60
2019-01-16T11:12:29.566Z,6.70
2019-01-16T11:15:16.203Z,6.70
2019-01-16T11:18:19.464Z,6.80
2019-01-16T11:21:10.998Z,6.80
2019-01-16T11:23:58.413Z,7.00
2019-01-16T11:27:04.515Z,7.30
2019-01-16T11:30:11.353Z,7.70
2019-01-16T11:33:02.124Z,7.30
2019-01-16T11:35:48.455Z,7.50
2019-01-16T11:38:36.305Z,7.60
2019-01-16T11:41:26.660Z,7.70
2019-01-16T11:44:17.060Z,7.80
2019-01-16T11:47:04.039Z,7.90
2019-01-16T11:49:47.955Z,8.10
2019-01-16T11:52:50.665Z,8.00
2019-01-16T11:55:37.886Z,8.10
2019-01-16T11:58:25.487Z,8.10
2019-01-16T12:01:10.230Z,8.40
2019-01-16T12:04:09.895Z,8.40
2019-01-16T12:07:09.760Z,8.50
2019-01-16T12:10:12.967Z,8.40
2019-01-16T12:13:03.476Z,8.50
2019-01-16T12:15:56.913Z,8.50
2019-01-16T12:18:34.528Z,8.50
2019-01-16T12:21:40.222Z,8.60
2019-01-16T12:24:19.498Z,8.60
2019-01-16T12:27:06.046Z,8.70
2019-01-16T12:30:02.995Z,8.90
2019-01-16T12:32:51.960Z,9.00
2019-01-16T12:35:45.606Z,9.00
2019-01-16T12:38:24.344Z,8.90
2019-01-16T12:41:11.941Z,8.80
2019-01-16T12:44:03.230Z,8.70
2019-01-16T12:46:59.565Z,8.90
2019-01-16T12:49:45.529Z,9.30
2019-01-16T12:52:33.258Z,9.30
2019-01-16T12:55:19.752Z,9.10
2019-01-16T12:58:13.396Z,9.20
2019-01-16T13:00:56.754Z,9.60
2019-01-16T13:03:45.636Z,9.60
2019-01-16T13:06:31.951Z,9.70
2019-01-16T13:09:19.919Z,9.40
2019-01-16T13:12:11.951Z,9.50
2019-01-16T13:14:58.275Z,9.60
2019-01-16T13:17:48.955Z,9.80
2019-01-16T13:20:37.960Z,10.00
2019-01-16T13:23:35.273Z,9.90
2019-01-16T13:26:21.861Z,9.80
2019-01-16T13:29:09.919Z,9.70
2019-01-16T13:32:00.572Z,9.80
2019-01-16T13:35:01.051Z,10.10
2019-01-16T13:37:48.804Z,10.10
2019-01-16T13:40:55.352Z,9.80
2019-01-16T13:43:43.034Z,9.90
2019-01-16T13:46:30.634Z,9.70
2019-01-16T13:49:07.236Z,9.60
2019-01-16T13:51:46.420Z,9.50
2019-01-16T13:54:42.442Z,9.60
2019-01-16T13:57:28.855Z,9.50
2019-01-16T14:00:12.061Z,9.90
2019-01-16T14:02:46.615Z,9.20
2019-01-16T14:05:43.522Z,9.20
2019-01-16T14:08:22.813Z,8.60
2019-01-16T14:11:22.721Z,8.50
2019-01-16T14:14:10.569Z,8.50
2019-01-16T14:17:16.610Z,8.40
2019-01-16T14:20:04.281Z,8.40
2019-01-16T14:22:44.068Z,8.30
2019-01-16T14:25:33.868Z,8.40
2019-01-16T14:28:21.765Z,8.30
2019-01-16T14:31:08.136Z,8.30
2019-01-16T14:33:55.707Z,8.10
2019-01-16T14:39:32.376Z,8.00
2019-01-16T14:42:21.350Z,7.80
2019-01-16T14:48:09.218Z,7.90
2019-01-16T14:50:51.742Z,7.90
2019-01-16T14:53:35.978Z,7.90
2019-01-16T14:56:23.012Z,7.90
2019-01-16T14:59:06.486Z,8.00
2019-01-16T15:01:50.034Z,8.00
2019-01-16T15:04:33.720Z,7.90
2019-01-16T15:07:11.185Z,7.80
2019-01-16T15:09:52.688Z,7.80
2019-01-16T15:12:40.313Z,7.80
2019-01-16T15:15:21.357Z,7.80
2019-01-16T15:18:21.713Z,7.80
2019-01-16T15:21:12.349Z,7.60
2019-01-16T15:24:00.359Z,7.60
2019-01-16T15:26:46.600Z,7.60
2019-01-16T15:29:28.689Z,7.40
2019-01-16T15:32:34.742Z,7.50
2019-01-16T15:35:21.158Z,7.30
2019-01-16T15:40:56.588Z,7.20
2019-01-16T15:43:58.267Z,7.20
2019-01-16T15:46:44.435Z,7.20
2019-01-16T15:49:38.203Z,7.10
2019-01-16T15:52:16.059Z,7.00
2019-01-16T15:54:58.636Z,7.00
2019-01-16T15:57:58.710Z,6.70
2019-01-16T16:00:44.288Z,6.80
2019-01-16T16:03:27.377Z,6.80
2019-01-16T16:06:15.131Z,6.70
2019-01-16T16:09:12.071Z,6.60
2019-01-16T16:11:58.380Z,6.60
2019-01-16T16:14:44.856Z,6.50
2019-01-16T16:17:30.413Z,6.40
2019-01-16T16:20:21.350Z,6.40
2019-01-16T16:28:45.340Z,6.40
2019-01-16T16:31:38.973Z,6.20
2019-01-16T16:34:30.219Z,6.40
2019-01-16T16:37:10.067Z,6.30
2019-01-16T16:40:12.819Z,6.20
2019-01-16T16:42:58.697Z,6.20
2019-01-16T16:54:29.940Z,6.10
2019-01-16T16:57:11.616Z,6.00
2019-01-16T17:00:17.942Z,6.10
2019-01-16T17:03:11.686Z,6.10
2019-01-16T17:06:01.182Z,6.50
2019-01-16T17:08:47.582Z,6.00
2019-01-16T17:11:30.603Z,6.10
2019-01-16T17:14:18.129Z,6.00
2019-01-16T17:17:04.858Z,7.30
2019-01-16T17:19:56.236Z,6.00
2019-01-16T17:22:37.342Z,6.00
2019-01-16T17:25:21.799Z,6.00
2019-01-16T17:28:10.449Z,6.00
2019-01-16T17:30:54.471Z,5.90
2019-01-16T17:33:40.066Z,6.00
2019-01-16T17:36:27.782Z,6.00
2019-01-16T17:39:14.247Z,6.00
2019-01-16T17:42:07.680Z,5.90
2019-01-16T17:45:10.570Z,6.00
2019-01-16T17:48:01.421Z,6.00
2019-01-16T17:50:42.836Z,6.00
2019-01-16T17:53:23.817Z,6.00
2019-01-16T17:56:14.524Z,6.00
2019-01-16T17:59:00.898Z,6.00
2019-01-16T18:02:00.144Z,5.90
2019-01-16T18:04:47.704Z,5.80
2019-01-16T18:07:43.379Z,5.90
2019-01-16T18:10:37.639Z,5.90
2019-01-16T18:13:31.307Z,5.90
2019-01-16T18:16:21.597Z,5.80
2019-01-16T18:19:09.331Z,5.80
2019-01-16T18:21:47.786Z,5.70
2019-01-16T18:24:35.337Z,5.70
2019-01-16T18:30:14.228Z,5.70
2019-01-16T18:33:02.889Z,5.70
2019-01-16T18:35:50.282Z,5.60
2019-01-16T18:38:36.915Z,5.60
2019-01-16T18:41:27.920Z,5.60
2019-01-16T18:44:04.689Z,5.60
2019-01-16T18:46:49.322Z,5.60
2019-01-16T18:49:27.666Z,6.00
2019-01-16T18:52:14.084Z,5.60
2019-01-16T18:54:55.798Z,5.60
2019-01-16T18:57:35.168Z,5.30
2019-01-16T19:00:33.317Z,5.50
2019-01-16T19:03:19.948Z,5.50
2019-01-16T19:06:06.531Z,5.40
2019-01-16T19:09:06.548Z,5.00
2019-01-16T19:12:06.633Z,5.20
2019-01-16T19:14:57.021Z,5.20
2019-01-16T19:17:37.783Z,5.10
2019-01-16T19:20:37.449Z,5.10
2019-01-16T19:23:17.910Z,5.00
2019-01-16T19:26:04.129Z,5.40
2019-01-16T19:28:54.520Z,5.00
2019-01-16T19:31:36.381Z,4.90
2019-01-16T19:34:30.330Z,5.00
2019-01-16T19:37:36.040Z,5.00
2019-01-16T19:40:29.350Z,5.10
2019-01-16T19:43:29.568Z,5.30
2019-01-16T19:46:16.930Z,5.00
2019-01-16T19:49:19.650Z,5.20
2019-01-16T19:52:00.904Z,5.20
2019-01-16T19:55:00.817Z,5.40
2019-01-16T20:00:53.301Z,5.20
2019-01-16T20:03:39.791Z,5.20
2019-01-16T20:06:18.384Z,5.20
2019-01-16T20:09:11.646Z,5.30
2019-01-16T20:11:48.927Z,5.40
2019-01-16T20:14:39.680Z,5.40
2019-01-16T20:17:33.523Z,5.30
2019-01-16T20:20:30.258Z,5.40
2019-01-16T20:23:16.468Z,5.40
2019-01-16T20:28:45.806Z,5.50
2019-01-16T20:31:45.035Z,5.70
2019-01-16T20:34:31.271Z,5.40
2019-01-16T20:37:21.901Z,5.50
2019-01-16T20:40:17.414Z,5.50
2019-01-16T20:43:23.420Z,5.50
2019-01-16T20:46:23.135Z,5.50
2019-01-16T20:49:13.605Z,5.50
2019-01-16T20:52:04.556Z,5.50
2019-01-16T20:55:01.080Z,5.50
2019-01-16T20:57:57.803Z,5.50
2019-01-16T21:00:49.109Z,5.10
2019-01-16T21:03:45.515Z,5.50
2019-01-16T21:06:32.701Z,5.50
2019-01-16T21:09:23.039Z,5.50
2019-01-16T21:12:19.606Z,5.60
2019-01-16T21:14:55.319Z,5.50
2019-01-16T21:17:36.635Z,5.60
2019-01-16T21:20:26.002Z,5.50
2019-01-16T21:23:26.260Z,5.50
2019-01-16T21:26:12.637Z,5.60
2019-01-16T21:28:59.137Z,5.50
2019-01-16T21:37:20.984Z,5.60
2019-01-16T21:40:07.539Z,5.40
2019-01-16T21:43:10.670Z,5.60
2019-01-16T21:46:04.520Z,5.50
2019-01-16T21:48:50.847Z,5.90
2019-01-16T21:51:38.406Z,5.40
2019-01-16T21:54:19.249Z,5.60
2019-01-16T21:57:13.275Z,5.60
2019-01-16T22:00:01.004Z,5.60
2019-01-16T22:02:48.822Z,5.60
2019-01-16T22:05:36.419Z,5.50
2019-01-16T22:08:22.868Z,5.50
2019-01-16T22:11:09.827Z,5.50
2019-01-16T22:13:56.901Z,5.50
2019-01-16T22:16:41.929Z,5.50
2019-01-16T22:19:28.000Z,5.40
2019-01-16T22:27:51.067Z,5.40
2019-01-16T22:30:47.428Z,5.40
2019-01-16T22:33:33.907Z,5.40
2019-01-16T22:36:24.393Z,5.30
2019-01-16T22:39:04.499Z,5.20
2019-01-16T22:41:59.503Z,5.20
2019-01-16T22:47:40.217Z,5.10
2019-01-16T22:50:27.950Z,5.20
2019-01-16T22:53:14.474Z,5.10
2019-01-16T22:56:03.464Z,5.10
2019-01-16T22:58:57.259Z,5.10
2019-01-16T23:01:44.889Z,5.00
2019-01-16T23:04:31.292Z,4.90
2019-01-16T23:07:16.536Z,4.90
2019-01-16T23:10:07.780Z,4.90
2019-01-16T23:12:53.590Z,4.90
2019-01-16T23:15:32.629Z,4.90
2019-01-16T23:18:32.244Z,4.80
2019-01-16T23:24:18.258Z,4.80
2019-01-16T23:27:20.938Z,4.50
2019-01-16T23:30:08.645Z,4.70
2019-01-16T23:35:42.701Z,4.70
2019-01-16T23:38:33.313Z,4.80
2019-01-16T23:41:19.938Z,4.60
2019-01-16T23:44:13.921Z,4.90
2019-01-16T23:47:04.705Z,4.70
2019-01-16T23:49:51.430Z,4.60
2019-01-16T23:52:36.513Z,4.50
2019-01-16T23:55:29.085Z,4.50
2019-01-16T23:58:16.966Z,4.50
